Rocksprings, Texas
Current Conditions -  °F | °C
As of 7:30 PM on Monday 20 Oct 2014 (Local Time) from KECU Reporting Station
Clear Clear  
Wind Chill: 72°   Ceiling: Unl
Heat Index: 72°   Visibility: 10mi
Dew Point: 54°   Wind: 6mph
Humidity: 53%   Direction: 100°E
Pressure: 30.06"   Gusts: NA
Location:  30.02°N, 100.21°W
Report Text: KECU 210030Z AUTO 10005KT 10SM CLR 22/12 A3006 RMK AO2
Loading
Personal Weather Stations






























Interactive Weather Map New forecast layout! Learn more

10-Day Weather Forecast

Advertisements
Track Severe Weather on mobile